Time;durP1;ratioP1;P1;durP2;ratioP2;P2;SDS_P1;SDS_P2;PMS_P1;PMS_P2;Temp;Humidity;BMP_temperature;BMP_pressure;BME280_temperature;BME280_humidity;BME280_pressure;Samples;Min_cycle;Max_cycle;Signal;HPM_P1;HPM_P2
2022/08/26 00:02:00;;;;;;;5.75;3.05;;;23.80;99.90;;;;;;4868167;29;20064;-89
2022/08/26 00:04:31;;;;;;;6.82;3.25;;;23.90;99.90;;;;;;4865422;29;20064;-89
2022/08/26 00:06:58;;;;;;;9.40;3.08;;;23.80;99.90;;;;;;4874974;29;20041;-90
2022/08/26 00:09:26;;;;;;;5.72;3.28;;;23.80;99.90;;;;;;4867647;29;20184;-90
2022/08/26 00:11:54;;;;;;;7.97;3.08;;;23.80;99.90;;;;;;4883151;29;20040;-90
2022/08/26 00:14:22;;;;;;;5.20;2.72;;;23.90;99.90;;;;;;4866205;29;20049;-92
2022/08/26 00:16:57;;;;;;;9.02;2.90;;;23.90;99.90;;;;;;4870356;29;20061;-89
2022/08/26 00:19:25;;;;;;;11.32;3.22;;;23.90;99.90;;;;;;4882655;29;20055;-92
2022/08/26 00:21:53;;;;;;;9.50;2.83;;;23.90;99.90;;;;;;4863309;29;20049;-89
2022/08/26 00:24:22;;;;;;;9.32;3.47;;;23.80;99.90;;;;;;4866333;29;20965;-90
2022/08/26 00:26:49;;;;;;;14.48;3.75;;;23.80;99.90;;;;;;4861056;29;20049;-91
2022/08/26 00:29:18;;;;;;;6.80;2.72;;;23.80;99.90;;;;;;4867638;29;20044;-88
2022/08/26 00:31:47;;;;;;;8.65;2.75;;;23.70;99.90;;;;;;4867602;29;20060;-88
2022/08/26 00:34:15;;;;;;;7.70;3.10;;;23.60;99.90;;;;;;4862276;29;20545;-90
2022/08/26 00:36:46;;;;;;;7.85;3.10;;;23.60;99.90;;;;;;4871928;29;20820;-91
2022/08/26 00:39:18;;;;;;;7.97;2.65;;;23.50;99.90;;;;;;4864942;29;20052;-91
2022/08/26 00:41:46;;;;;;;9.93;3.28;;;23.60;99.90;;;;;;4865360;29;20056;-91
2022/08/26 00:44:14;;;;;;;9.32;3.42;;;23.60;99.90;;;;;;4877011;29;20060;-90
2022/08/26 00:46:47;;;;;;;8.82;2.95;;;23.60;99.90;;;;;;4862564;29;20072;-90
2022/08/26 00:49:40;;;;;;;10.93;3.25;;;23.50;99.90;;;;;;4861569;29;20045;-90
2022/08/26 00:52:13;;;;;;;8.25;3.67;;;23.60;99.90;;;;;;4853272;29;20071;-89
2022/08/26 00:54:48;;;;;;;12.70;3.03;;;23.60;99.90;;;;;;4878170;29;20563;-89
2022/08/26 00:57:17;;;;;;;12.07;3.92;;;23.50;99.90;;;;;;4864194;29;20048;-90
2022/08/26 00:59:50;;;;;;;7.90;3.22;;;23.50;99.90;;;;;;4861064;29;20513;-91
2022/08/26 01:02:17;;;;;;;8.15;3.05;;;23.50;99.90;;;;;;4879947;29;20108;-90
2022/08/26 01:04:50;;;;;;;9.05;3.38;;;23.50;99.90;;;;;;4866842;29;20052;-89
2022/08/26 01:07:27;;;;;;;9.35;3.65;;;23.50;99.90;;;;;;4875649;29;20490;-89
2022/08/26 01:10:00;;;;;;;10.05;3.10;;;23.50;99.90;;;;;;4865712;29;20809;-91
2022/08/26 01:12:36;;;;;;;18.60;4.28;;;23.50;99.90;;;;;;4877654;29;20494;-91
2022/08/26 01:15:12;;;;;;;6.95;3.10;;;23.50;99.90;;;;;;4861524;29;20044;-90
2022/08/26 01:17:40;;;;;;;9.23;3.35;;;23.50;99.90;;;;;;4858597;29;20053;-90
2022/08/26 01:20:30;;;;;;;5.82;3.00;;;23.50;99.90;;;;;;4854688;29;20049;-90
2022/08/26 01:23:01;;;;;;;6.53;2.80;;;23.40;99.90;;;;;;4878936;29;20056;-90
2022/08/26 01:25:33;;;;;;;5.75;2.97;;;23.40;99.90;;;;;;4877977;29;20049;-90
2022/08/26 01:28:05;;;;;;;5.30;2.80;;;23.40;99.90;;;;;;4866603;29;20044;-90
2022/08/26 01:30:34;;;;;;;8.60;3.30;;;23.40;99.90;;;;;;4867014;29;20095;-90
2022/08/26 01:33:06;;;;;;;8.73;3.08;;;23.40;99.90;;;;;;4863472;29;20036;-91
2022/08/26 01:35:35;;;;;;;16.02;3.80;;;23.30;99.90;;;;;;4882002;29;20045;-91
2022/08/26 01:38:03;;;;;;;8.30;3.15;;;23.40;99.90;;;;;;4863193;29;20073;-90
2022/08/26 01:40:36;;;;;;;6.80;3.10;;;23.30;99.90;;;;;;4877182;29;20066;-91
2022/08/26 01:43:07;;;;;;;7.03;2.92;;;23.30;99.90;;;;;;4877961;29;20414;-92
2022/08/26 01:45:39;;;;;;;9.13;3.67;;;23.40;99.90;;;;;;4858977;29;20052;-91
2022/08/26 01:48:10;;;;;;;8.43;4.38;;;23.30;99.90;;;;;;4861588;29;20049;-90
2022/08/26 01:50:38;;;;;;;8.05;3.10;;;23.30;99.90;;;;;;4861605;29;20053;-89
2022/08/26 01:53:09;;;;;;;8.60;3.65;;;23.30;99.90;;;;;;4865427;29;20471;-91
2022/08/26 01:55:43;;;;;;;10.07;3.28;;;23.30;99.90;;;;;;4861063;29;20049;-92
2022/08/26 01:58:22;;;;;;;10.05;3.65;;;23.30;99.90;;;;;;4864833;29;20044;-90
2022/08/26 02:00:50;;;;;;;7.30;3.55;;;23.30;99.90;;;;;;4860732;29;20488;-91
2022/08/26 02:03:21;;;;;;;11.23;4.28;;;23.20;99.90;;;;;;4857415;29;20050;-92
2022/08/26 02:05:52;;;;;;;6.38;3.75;;;23.20;99.90;;;;;;4864307;29;20136;-92
2022/08/26 02:08:45;;;;;;;7.13;3.53;;;23.20;99.90;;;;;;4877326;29;20128;-91
2022/08/26 02:11:13;;;;;;;;;;;23.10;99.90;;;;;;4856857;29;20044;-92
2022/08/26 02:13:51;;;;;;;10.73;3.85;;;23.10;99.90;;;;;;4882505;29;20010;-91
2022/08/26 02:16:25;;;;;;;8.73;3.63;;;23.10;99.90;;;;;;4860341;29;20063;-91
2022/08/26 02:18:54;;;;;;;10.18;4.10;;;23.10;99.90;;;;;;4877966;29;20497;-92
2022/08/26 02:21:21;;;;;;;7.75;3.13;;;23.00;99.90;;;;;;4864586;29;20042;-92
2022/08/26 02:23:51;;;;;;;8.77;3.28;;;23.00;99.90;;;;;;4866355;29;20561;-92
2022/08/26 02:26:23;;;;;;;8.18;4.13;;;23.00;99.90;;;;;;4858479;29;20098;-92
2022/08/26 02:29:06;;;;;;;12.10;3.63;;;23.00;99.90;;;;;;4865733;29;20796;-92
2022/08/26 02:31:33;;;;;;;9.00;3.45;;;22.90;99.90;;;;;;4864940;29;20517;-92
2022/08/26 02:34:18;;;;;;;9.15;3.92;;;22.90;99.90;;;;;;4865782;29;20044;-92
2022/08/26 02:36:46;;;;;;;14.90;3.50;;;22.90;99.90;;;;;;4855797;29;20060;-93
2022/08/26 02:39:15;;;;;;;14.15;3.75;;;22.90;99.90;;;;;;4864353;29;20049;-93
2022/08/26 02:41:48;;;;;;;16.33;4.03;;;22.90;99.90;;;;;;4864475;29;20045;-92
2022/08/26 02:44:16;;;;;;;12.55;3.85;;;22.80;99.90;;;;;;4881375;29;20155;-92
2022/08/26 02:46:44;;;;;;;9.43;3.72;;;22.80;99.90;;;;;;4857922;29;20502;-92
2022/08/26 02:49:15;;;;;;;12.50;3.50;;;22.70;99.90;;;;;;4859473;29;20052;-91
2022/08/26 02:51:43;;;;;;;9.07;3.83;;;22.80;99.90;;;;;;4871005;29;20048;-92
2022/08/26 02:54:11;;;;;;;10.07;4.03;;;22.70;99.90;;;;;;4864571;29;20561;-90
2022/08/26 02:56:39;;;;;;;10.77;4.00;;;22.60;99.90;;;;;;4863783;29;20068;-91
2022/08/26 02:59:06;;;;;;;10.85;3.85;;;22.60;99.90;;;;;;4862858;29;20048;-92
2022/08/26 03:01:35;;;;;;;9.02;3.67;;;22.60;99.90;;;;;;4862795;29;20498;-92
2022/08/26 03:04:04;;;;;;;10.93;4.22;;;22.60;99.90;;;;;;4861248;29;20053;-92
2022/08/26 03:06:32;;;;;;;8.43;4.10;;;22.60;99.90;;;;;;4862140;29;20053;-92
2022/08/26 03:08:59;;;;;;;9.40;3.95;;;22.60;99.90;;;;;;4878215;29;20052;-92
2022/08/26 03:11:27;;;;;;;10.73;4.75;;;22.60;99.90;;;;;;4864593;29;20041;-92
2022/08/26 03:13:59;;;;;;;;;;;22.60;99.90;;;;;;4862642;29;20057;-91
2022/08/26 03:16:35;;;;;;;13.07;4.85;;;22.50;99.90;;;;;;4859318;29;19923;-90
2022/08/26 03:19:04;;;;;;;10.45;3.97;;;22.50;99.90;;;;;;4860511;29;20490;-89
2022/08/26 03:21:35;;;;;;;12.75;4.40;;;22.40;99.90;;;;;;4873112;29;20044;-92
2022/08/26 03:24:04;;;;;;;8.38;4.43;;;22.50;99.90;;;;;;4860240;29;20391;-91
2022/08/26 03:26:31;;;;;;;8.85;4.07;;;22.40;99.90;;;;;;4865057;29;20044;-91
2022/08/26 03:31:45;;;;;;;11.38;4.15;;;22.40;99.90;;;;;;4875647;29;20045;-91
2022/08/26 03:34:13;;;;;;;12.52;4.43;;;22.30;99.90;;;;;;4878575;29;20109;-90
2022/08/26 03:36:42;;;;;;;7.22;3.80;;;22.30;99.90;;;;;;4885780;29;20135;-91
2022/08/26 03:39:10;;;;;;;12.43;3.85;;;22.40;99.90;;;;;;4883622;29;20048;-92
2022/08/26 03:41:39;;;;;;;11.25;4.75;;;22.40;99.90;;;;;;4869609;29;20052;-93
2022/08/26 03:44:10;;;;;;;14.40;4.43;;;22.30;99.90;;;;;;4867703;29;20144;-92
2022/08/26 03:46:38;;;;;;;8.80;3.72;;;22.30;99.90;;;;;;4866002;29;20057;-92
2022/08/26 03:49:06;;;;;;;10.57;4.20;;;22.30;99.90;;;;;;4882280;29;20045;-92
2022/08/26 03:51:36;;;;;;;7.38;4.13;;;22.30;99.90;;;;;;4884493;29;20084;-91
2022/08/26 03:54:06;;;;;;;11.13;4.28;;;22.20;99.90;;;;;;4868524;29;20048;-92
2022/08/26 03:56:35;;;;;;;8.00;4.15;;;22.20;99.90;;;;;;4866441;29;20045;-91
2022/08/26 03:59:03;;;;;;;8.68;4.43;;;22.30;99.90;;;;;;4863913;29;20049;-91
2022/08/26 04:01:37;;;;;;;9.48;4.30;;;22.20;99.90;;;;;;4866209;29;20052;-90
2022/08/26 04:04:05;;;;;;;8.77;3.67;;;22.20;99.90;;;;;;4868510;29;20478;-91
2022/08/26 04:06:38;;;;;;;9.60;4.13;;;22.20;99.90;;;;;;4875354;29;20108;-91
2022/08/26 04:09:09;;;;;;;11.65;4.13;;;22.20;99.90;;;;;;4880719;29;20055;-92
2022/08/26 04:11:38;;;;;;;13.60;4.45;;;22.20;99.90;;;;;;4865572;29;20466;-92
2022/08/26 04:14:12;;;;;;;9.90;4.72;;;22.10;99.90;;;;;;4861954;29;20477;-93
2022/08/26 04:16:41;;;;;;;12.32;5.18;;;22.20;99.90;;;;;;4867448;29;20064;-93
2022/08/26 04:19:10;;;;;;;12.75;4.35;;;22.20;99.90;;;;;;4864624;29;20060;-92
2022/08/26 04:21:40;;;;;;;11.90;4.30;;;22.20;99.90;;;;;;4880177;29;20087;-92
2022/08/26 04:24:10;;;;;;;12.60;4.50;;;22.20;99.90;;;;;;4866338;29;20097;-93
2022/08/26 04:26:38;;;;;;;11.02;4.80;;;22.20;99.90;;;;;;4879447;29;20049;-91
2022/08/26 04:29:16;;;;;;;11.55;4.22;;;22.20;99.90;;;;;;4874175;29;20040;-93
2022/08/26 04:31:46;;;;;;;10.35;4.63;;;22.20;99.90;;;;;;4866655;29;20056;-93
2022/08/26 04:34:14;;;;;;;12.00;4.45;;;22.10;99.90;;;;;;4866636;29;20857;-89
2022/08/26 04:36:43;;;;;;;12.23;5.00;;;22.00;99.90;;;;;;4868077;29;20053;-91
2022/08/26 04:39:13;;;;;;;12.95;3.70;;;21.90;99.90;;;;;;4880323;29;20051;-90
2022/08/26 04:41:41;;;;;;;12.60;4.40;;;21.90;99.90;;;;;;4862949;29;20061;-91
2022/08/26 04:44:09;;;;;;;12.18;4.50;;;21.90;99.90;;;;;;4867786;29;20060;-91
2022/08/26 04:46:37;;;;;;;11.40;4.60;;;22.00;99.90;;;;;;4863344;29;20076;-92
2022/08/26 04:49:10;;;;;;;13.98;4.57;;;22.10;99.90;;;;;;4868756;29;20049;-92
2022/08/26 04:51:38;;;;;;;11.40;4.53;;;22.10;99.90;;;;;;4866571;29;20096;-92
2022/08/26 04:54:06;;;;;;;9.75;4.32;;;22.20;99.90;;;;;;4865241;29;20053;-92
2022/08/26 04:56:36;;;;;;;10.25;3.97;;;22.20;99.90;;;;;;4883504;29;20052;-89
2022/08/26 04:59:06;;;;;;;10.07;4.22;;;22.20;99.90;;;;;;4864395;29;20099;-90
2022/08/26 05:01:49;;;;;;;10.30;4.13;;;22.10;99.90;;;;;;4867978;29;20044;-91
2022/08/26 05:04:19;;;;;;;8.70;4.22;;;22.20;99.90;;;;;;4864908;29;20045;-91
2022/08/26 05:06:48;;;;;;;12.75;4.38;;;22.10;99.90;;;;;;4879239;29;20423;-90
2022/08/26 05:09:17;;;;;;;8.02;4.18;;;22.30;99.90;;;;;;4857869;29;20064;-88
2022/08/26 05:11:45;;;;;;;6.53;3.95;;;22.20;99.90;;;;;;4864483;29;20048;-90
2022/08/26 05:14:19;;;;;;;11.68;3.33;;;22.20;99.90;;;;;;4867597;29;20482;-90
2022/08/26 05:16:46;;;;;;;11.80;4.25;;;22.30;99.90;;;;;;4880143;29;20096;-90
2022/08/26 05:19:15;;;;;;;7.03;4.00;;;22.20;99.90;;;;;;4855355;29;20104;-91
2022/08/26 05:21:45;;;;;;;8.25;4.53;;;22.30;99.90;;;;;;4855464;29;20056;-91
2022/08/26 05:24:13;;;;;;;11.05;3.65;;;22.30;99.90;;;;;;4865880;29;20160;-90
2022/08/26 05:26:41;;;;;;;9.68;3.75;;;22.40;99.90;;;;;;4866079;29;20049;-90
2022/08/26 05:29:11;;;;;;;6.43;3.17;;;22.40;99.90;;;;;;4879964;29;20211;-88
2022/08/26 05:31:38;;;;;;;8.13;3.90;;;22.50;99.90;;;;;;4863648;29;20045;-90
2022/08/26 05:34:06;;;;;;;7.18;3.33;;;22.50;99.90;;;;;;4873567;29;20766;-88
2022/08/26 05:36:35;;;;;;;5.35;3.03;;;22.60;99.90;;;;;;4866404;29;20100;-87
2022/08/26 05:39:04;;;;;;;8.02;4.22;;;22.70;99.90;;;;;;4859513;29;20053;-87
2022/08/26 05:41:35;;;;;;;9.65;3.67;;;22.80;99.90;;;;;;4871943;29;20053;-88
2022/08/26 05:44:08;;;;;;;5.80;3.25;;;22.90;99.90;;;;;;4862669;29;20519;-90
2022/08/26 05:46:37;;;;;;;;;;;23.00;99.90;;;;;;4863907;29;20942;-89
2022/08/26 05:49:06;;;;;;;7.32;3.60;;;23.10;99.90;;;;;;4879898;29;19924;-90
2022/08/26 05:51:40;;;;;;;9.30;3.40;;;23.20;99.90;;;;;;4864950;29;20044;-90
2022/08/26 05:54:08;;;;;;;9.57;3.70;;;23.20;99.90;;;;;;4866513;29;20398;-91
2022/08/26 05:56:37;;;;;;;8.88;3.03;;;23.30;99.90;;;;;;4859899;29;20072;-86
2022/08/26 05:59:05;;;;;;;7.90;3.00;;;23.40;99.90;;;;;;4878225;29;20052;-90
2022/08/26 06:01:42;;;;;;;7.00;2.67;;;23.50;99.90;;;;;;4862078;29;20056;-90
2022/08/26 06:04:10;;;;;;;8.13;2.50;;;23.60;99.90;;;;;;4855103;29;20105;-87
2022/08/26 06:06:40;;;;;;;10.38;3.53;;;23.80;99.20;;;;;;4858311;29;20128;-87
2022/08/26 06:09:09;;;;;;;7.78;2.60;;;23.90;98.60;;;;;;4875926;29;20048;-86
2022/08/26 06:11:38;;;;;;;8.35;3.17;;;24.00;96.90;;;;;;4860395;29;20500;-84
2022/08/26 06:14:07;;;;;;;13.93;3.80;;;24.10;95.90;;;;;;4871037;29;20124;-88
2022/08/26 06:16:38;;;;;;;8.65;3.33;;;24.30;94.70;;;;;;4857348;29;20049;-88
2022/08/26 06:19:08;;;;;;;11.20;4.40;;;24.40;94.40;;;;;;4864666;29;20120;-89
2022/08/26 06:21:39;;;;;;;12.15;2.90;;;24.50;93.40;;;;;;4864163;29;20045;-88
2022/08/26 06:27:03;;;;;;;11.02;2.22;;;24.70;92.30;;;;;;4875717;29;20053;-86
2022/08/26 06:29:32;;;;;;;6.00;2.15;;;24.80;89.40;;;;;;4879933;29;20076;-87
2022/08/26 06:32:03;;;;;;;8.48;2.20;;;24.90;84.20;;;;;;4862481;29;20135;-88
2022/08/26 06:34:31;;;;;;;11.15;2.65;;;25.00;83.60;;;;;;4862080;29;20083;-87
2022/08/26 06:37:04;;;;;;;8.90;2.60;;;25.20;82.40;;;;;;4862893;29;20084;-86
2022/08/26 06:39:32;;;;;;;7.88;2.40;;;25.20;79.60;;;;;;4876030;29;20058;-87
2022/08/26 06:42:01;;;;;;;10.55;2.10;;;25.30;77.40;;;;;;4876575;29;20101;-91
2022/08/26 06:44:33;;;;;;;9.15;2.90;;;25.30;76.10;;;;;;4861982;29;20421;-86
2022/08/26 06:47:00;;;;;;;6.80;2.40;;;25.40;74.20;;;;;;4856165;29;20052;-90
2022/08/26 06:49:28;;;;;;;5.45;2.13;;;25.50;73.30;;;;;;4871103;29;20056;-87
2022/08/26 06:51:58;;;;;;;5.68;2.05;;;25.60;72.90;;;;;;4886597;29;20135;-86
2022/08/26 06:54:30;;;;;;;6.13;1.75;;;25.70;73.10;;;;;;4873064;29;20053;-82
2022/08/26 06:56:58;;;;;;;6.90;2.05;;;25.80;72.60;;;;;;4877631;29;20067;-87
2022/08/26 06:59:25;;;;;;;4.78;2.17;;;25.90;71.00;;;;;;4869767;29;20045;-86
2022/08/26 07:01:53;;;;;;;11.10;1.85;;;25.90;69.90;;;;;;4860197;29;20047;-84
2022/08/26 07:04:23;;;;;;;7.60;2.00;;;25.90;69.10;;;;;;4859059;29;20053;-88
2022/08/26 07:06:51;;;;;;;3.85;2.00;;;26.00;70.20;;;;;;4872108;29;20052;-86
2022/08/26 07:09:22;;;;;;;9.40;2.03;;;26.10;69.50;;;;;;4864238;29;20044;-90
2022/08/26 07:11:50;;;;;;;6.30;3.00;;;26.10;68.90;;;;;;4871684;29;20044;-92
2022/08/26 07:14:19;;;;;;;6.63;2.03;;;26.20;69.40;;;;;;4875452;29;20045;-92
2022/08/26 07:16:49;;;;;;;6.45;2.13;;;26.30;69.40;;;;;;4859839;29;20045;-84
2022/08/26 07:19:20;;;;;;;7.93;1.73;;;26.40;66.70;;;;;;4863063;29;20052;-85
2022/08/26 07:22:00;;;;;;;7.40;1.63;;;26.40;67.50;;;;;;4871506;29;20060;-86
2022/08/26 07:24:28;;;;;;;8.10;1.73;;;26.50;66.20;;;;;;4877204;29;20062;-89
2022/08/26 07:27:01;;;;;;;7.35;1.90;;;26.50;66.20;;;;;;4862778;29;20055;-85
2022/08/26 07:29:29;;;;;;;9.02;1.98;;;26.70;66.20;;;;;;4864913;29;20060;-87
2022/08/26 07:31:57;;;;;;;8.93;1.77;;;26.70;64.30;;;;;;4873631;29;20045;-84
2022/08/26 07:34:26;;;;;;;7.93;2.10;;;26.80;65.00;;;;;;4861869;29;20053;-90
2022/08/26 07:36:55;;;;;;;6.05;2.25;;;26.90;64.80;;;;;;4874667;29;20049;-89
2022/08/26 07:39:25;;;;;;;7.25;2.00;;;26.90;64.20;;;;;;4862352;29;20053;-86
2022/08/26 07:41:53;;;;;;;7.45;2.53;;;27.00;64.50;;;;;;4870988;29;20037;-85
2022/08/26 07:44:22;;;;;;;6.28;2.20;;;27.10;65.00;;;;;;4861594;29;20053;-84
2022/08/26 07:46:49;;;;;;;7.35;2.50;;;27.20;66.40;;;;;;4861047;29;20053;-86
2022/08/26 07:49:23;;;;;;;6.47;2.40;;;27.30;65.30;;;;;;4861748;29;20049;-84
2022/08/26 07:51:52;;;;;;;;;;;27.20;64.40;;;;;;4867598;29;20491;-85
2022/08/26 07:54:20;;;;;;;7.53;2.30;;;27.30;65.30;;;;;;4873257;29;19924;-86
2022/08/26 07:56:53;;;;;;;9.05;2.40;;;27.30;64.00;;;;;;4877665;29;20190;-85
2022/08/26 07:59:22;;;;;;;6.43;2.22;;;27.40;66.30;;;;;;4852945;29;20072;-87
2022/08/26 08:01:50;;;;;;;6.15;1.95;;;27.50;65.40;;;;;;4878770;29;20394;-86
2022/08/26 08:04:19;;;;;;;6.28;2.08;;;27.60;65.30;;;;;;4877805;29;20049;-84
2022/08/26 08:06:53;;;;;;;9.48;2.15;;;27.50;64.80;;;;;;4867535;29;20049;-91
2022/08/26 08:09:21;;;;;;;7.95;2.40;;;27.50;63.60;;;;;;4861699;29;20064;-87
2022/08/26 08:11:51;;;;;;;7.15;2.67;;;27.60;63.50;;;;;;4858796;29;20123;-84
2022/08/26 08:14:19;;;;;;;6.28;2.58;;;27.60;64.20;;;;;;4861527;29;20127;-87
2022/08/26 08:16:49;;;;;;;6.13;2.17;;;27.60;64.00;;;;;;4864695;29;20051;-92
2022/08/26 08:19:20;;;;;;;;;;;27.60;63.60;;;;;;4858293;29;20052;-87
2022/08/26 08:21:47;;;;;;;6.50;2.85;;;27.60;63.90;;;;;;4860064;29;19971;-86
2022/08/26 08:24:15;;;;;;;14.00;3.00;;;27.70;64.50;;;;;;4880863;29;20131;-90
2022/08/26 08:26:42;;;;;;;14.50;1.80;;;27.70;63.60;;;;;;4860617;29;20064;-86
2022/08/26 08:29:09;;;;;;;4.82;1.60;;;27.80;62.20;;;;;;4872569;29;20097;-93
2022/08/26 08:31:38;;;;;;;10.00;2.72;;;27.80;62.80;;;;;;4893542;29;20048;-87
2022/08/26 08:34:25;;;;;;;7.90;2.45;;;27.80;63.70;;;;;;4878895;29;20056;-87
2022/08/26 08:36:53;;;;;;;6.13;2.13;;;27.90;62.30;;;;;;4880120;29;20100;-88
2022/08/26 08:39:21;;;;;;;6.45;2.33;;;28.00;64.30;;;;;;4875828;29;20052;-89
2022/08/26 08:42:03;;;;;;;4.63;2.13;;;28.00;62.10;;;;;;4863722;29;20505;-86
2022/08/26 08:44:31;;;;;;;7.90;1.70;;;28.00;61.70;;;;;;4883936;29;20063;-83
2022/08/26 08:47:04;;;;;;;6.60;2.22;;;28.00;62.50;;;;;;4877463;29;20052;-87
2022/08/26 08:49:33;;;;;;;6.60;1.90;;;28.00;62.50;;;;;;4860497;29;20485;-86
2022/08/26 08:52:36;;;;;;;6.13;2.33;;;28.10;62.30;;;;;;4872271;29;20081;-87
2022/08/26 08:55:05;;;;;;;7.22;2.38;;;28.10;62.40;;;;;;4823461;29;20056;-85
2022/08/26 08:57:46;;;;;;;9.73;2.22;;;28.20;62.00;;;;;;4860558;29;20513;-86
2022/08/26 09:00:17;;;;;;;5.10;1.98;;;28.20;62.30;;;;;;4866559;29;20489;-86
2022/08/26 09:03:05;;;;;;;6.03;1.88;;;28.30;63.10;;;;;;4877413;29;20045;-84
2022/08/26 09:05:40;;;;;;;6.32;2.30;;;28.40;63.60;;;;;;4876178;29;20059;-84
2022/08/26 09:08:20;;;;;;;7.53;2.47;;;28.40;63.30;;;;;;4856711;29;20664;-87
2022/08/26 09:10:58;;;;;;;12.38;2.17;;;28.40;62.70;;;;;;4865013;29;20049;-88
2022/08/26 09:13:27;;;;;;;5.75;2.30;;;28.50;64.00;;;;;;4877735;29;20052;-86
2022/08/26 09:16:14;;;;;;;5.50;1.92;;;28.60;66.80;;;;;;4875874;29;20100;-88
2022/08/26 09:18:58;;;;;;;8.85;2.15;;;28.60;63.10;;;;;;4873421;29;20053;-85
2022/08/26 09:21:28;;;;;;;7.80;2.20;;;28.70;63.10;;;;;;4858171;29;20063;-84
2022/08/26 09:23:56;;;;;;;7.93;2.38;;;28.70;62.60;;;;;;4858627;29;20047;-85
2022/08/26 09:26:39;;;;;;;8.07;2.67;;;28.70;63.80;;;;;;4857113;29;20100;-84
2022/08/26 09:29:19;;;;;;;8.60;2.67;;;28.80;63.70;;;;;;4861187;29;20084;-84
2022/08/26 09:31:48;;;;;;;8.38;2.20;;;28.80;62.40;;;;;;4864966;29;20041;-87
2022/08/26 09:34:20;;;;;;;4.90;1.92;;;28.80;61.30;;;;;;4865915;29;20052;-88
2022/08/26 09:36:50;;;;;;;;;;;28.90;61.10;;;;;;4861541;29;20065;-84
2022/08/26 09:39:26;;;;;;;8.85;2.72;;;28.90;63.00;;;;;;4859907;29;19971;-87
2022/08/26 09:42:21;;;;;;;11.57;2.40;;;28.90;61.00;;;;;;4856730;29;20070;-86
2022/08/26 09:45:02;;;;;;;6.53;1.92;;;28.90;61.70;;;;;;4879839;29;20060;-86
2022/08/26 09:47:37;;;;;;;12.80;3.00;;;29.00;62.10;;;;;;4882299;29;20494;-90
2022/08/26 09:50:27;;;;;;;8.48;2.20;;;29.00;61.40;;;;;;4857020;29;20041;-87
2022/08/26 09:53:15;;;;;;;12.15;2.63;;;29.10;61.60;;;;;;4862075;29;20056;-88
2022/08/26 09:55:46;;;;;;;6.70;2.03;;;29.10;59.40;;;;;;4856007;29;20056;-85
2022/08/26 09:58:30;;;;;;;6.03;1.67;;;29.10;60.90;;;;;;4873826;29;20045;-83
2022/08/26 10:01:01;;;;;;;5.55;1.75;;;29.10;62.20;;;;;;4857514;29;21446;-83
2022/08/26 10:03:33;;;;;;;5.68;2.28;;;29.10;61.00;;;;;;4879705;29;20085;-84
2022/08/26 10:06:00;;;;;;;6.60;1.90;;;29.10;60.70;;;;;;4864766;29;20045;-85
2022/08/26 10:08:30;;;;;;;11.98;1.80;;;29.20;59.10;;;;;;4879920;29;20053;-85
2022/08/26 10:11:03;;;;;;;7.65;2.13;;;29.20;60.80;;;;;;4865733;29;20041;-85
2022/08/26 10:13:30;;;;;;;12.35;2.42;;;29.20;58.60;;;;;;4865570;29;20049;-87
2022/08/26 10:16:18;;;;;;;7.40;1.65;;;29.30;59.30;;;;;;4881000;29;20044;-87
2022/08/26 10:18:55;;;;;;;7.72;2.25;;;29.40;58.60;;;;;;4862115;29;20040;-87
2022/08/26 10:21:30;;;;;;;7.13;2.03;;;29.40;59.10;;;;;;4864489;29;20049;-84
2022/08/26 10:23:59;;;;;;;10.53;2.50;;;29.40;57.80;;;;;;4879048;29;20104;-83
2022/08/26 10:26:58;;;;;;;8.05;1.95;;;29.30;57.80;;;;;;4862952;29;20041;-83
2022/08/26 10:29:36;;;;;;;8.40;1.60;;;29.30;60.10;;;;;;4877466;29;20089;-86
2022/08/26 10:32:15;;;;;;;6.80;2.10;;;29.40;59.50;;;;;;4877614;29;20053;-92
2022/08/26 10:34:43;;;;;;;10.85;2.20;;;29.50;58.70;;;;;;4863764;29;20073;-86
2022/08/26 10:37:19;;;;;;;8.90;1.65;;;29.40;60.20;;;;;;4863399;29;20041;-86
2022/08/26 10:40:06;;;;;;;9.68;1.95;;;29.40;58.40;;;;;;4853538;29;20048;-85
2022/08/26 10:42:41;;;;;;;5.85;1.42;;;29.50;58.60;;;;;;4865895;29;20052;-84
2022/08/26 10:45:19;;;;;;;9.95;1.58;;;29.60;59.10;;;;;;4880743;29;20064;-85
2022/08/26 10:47:53;;;;;;;9.32;2.00;;;29.70;59.50;;;;;;4854905;29;20140;-84
2022/08/26 10:50:25;;;;;;;6.40;1.58;;;29.60;57.40;;;;;;4857226;29;20143;-86
2022/08/26 10:53:31;;;;;;;9.45;2.17;;;29.70;57.90;;;;;;4855750;29;20052;-84
2022/08/26 10:56:08;;;;;;;5.50;1.80;;;29.80;55.90;;;;;;4863321;29;20078;-88
2022/08/26 10:59:02;;;;;;;8.25;1.65;;;29.80;55.60;;;;;;4866056;29;20131;-84
2022/08/26 11:02:06;;;;;;;9.90;2.03;;;29.70;54.90;;;;;;4876959;29;20072;-87
2022/08/26 11:04:48;;;;;;;8.45;2.08;;;29.70;56.90;;;;;;4863553;29;20059;-92
2022/08/26 11:07:40;;;;;;;7.70;1.73;;;29.70;54.10;;;;;;4880024;29;20117;-88
2022/08/26 11:10:20;;;;;;;5.38;1.50;;;29.70;55.00;;;;;;4907915;29;20056;-93
2022/08/26 11:13:07;;;;;;;11.77;2.60;;;29.80;54.40;;;;;;4857554;29;20691;-85
2022/08/26 11:15:38;;;;;;;4.82;1.50;;;29.70;54.30;;;;;;4860831;29;20081;-86
2022/08/26 11:18:30;;;;;;;9.20;2.00;;;29.70;56.10;;;;;;4860298;29;20498;-88
2022/08/26 11:20:57;;;;;;;10.07;1.73;;;29.70;55.30;;;;;;4874795;29;20123;-92
2022/08/26 11:23:25;;;;;;;5.93;2.00;;;29.80;52.90;;;;;;4880955;29;20057;-87
2022/08/26 11:26:08;;;;;;;8.93;2.08;;;29.70;53.30;;;;;;4865533;29;20041;-86
2022/08/26 11:28:38;;;;;;;6.80;1.98;;;29.80;54.50;;;;;;4861631;29;20053;-91
2022/08/26 11:31:17;;;;;;;5.35;1.50;;;29.90;53.50;;;;;;4858793;29;20079;-93
2022/08/26 11:33:51;;;;;;;6.53;1.77;;;29.90;53.70;;;;;;4865314;29;20490;-85
2022/08/26 11:36:35;;;;;;;7.68;1.50;;;29.90;51.50;;;;;;4864352;29;20048;-90
2022/08/26 11:39:27;;;;;;;5.75;1.77;;;29.80;53.40;;;;;;4864630;29;20077;-86
2022/08/26 11:41:58;;;;;;;5.95;1.50;;;29.90;55.30;;;;;;4852070;29;20084;-85
2022/08/26 11:44:37;;;;;;;5.18;1.80;;;29.90;55.90;;;;;;4879259;29;20123;-86
2022/08/26 11:47:09;;;;;;;5.22;1.98;;;30.10;55.90;;;;;;4860958;29;20105;-90
2022/08/26 11:49:38;;;;;;;3.83;1.40;;;30.10;54.50;;;;;;4852621;29;20078;-89
2022/08/26 11:52:15;;;;;;;4.72;1.38;;;30.20;53.60;;;;;;4855297;29;20091;-88
2022/08/26 11:55:22;;;;;;;7.10;1.90;;;30.20;53.00;;;;;;4856261;29;20630;-86
2022/08/26 11:57:54;;;;;;;11.32;1.70;;;30.20;53.10;;;;;;4786777;29;20066;-85
2022/08/26 12:00:49;;;;;;;5.45;1.60;;;30.30;52.00;;;;;;4860412;29;20049;-89
2022/08/26 12:03:47;;;;;;;12.02;1.63;;;30.30;51.20;;;;;;4864418;29;20060;-89
2022/08/26 12:06:32;;;;;;;5.78;1.65;;;30.40;51.80;;;;;;4862052;29;20072;-86
2022/08/26 12:09:10;;;;;;;4.32;1.40;;;30.30;51.20;;;;;;4870083;29;20057;-87
2022/08/26 12:11:38;;;;;;;7.15;1.58;;;30.30;52.00;;;;;;4864105;29;20049;-85
2022/08/26 12:14:14;;;;;;;4.80;1.30;;;30.20;52.20;;;;;;4862794;29;20145;-86
2022/08/26 12:16:42;;;;;;;9.32;1.40;;;30.20;52.10;;;;;;4869137;29;20045;-86
2022/08/26 12:19:29;;;;;;;9.45;2.10;;;30.20;51.40;;;;;;4859929;29;20459;-86
2022/08/26 12:22:06;;;;;;;7.38;1.58;;;30.20;53.10;;;;;;4867486;29;20059;-88
2022/08/26 12:24:34;;;;;;;8.88;2.10;;;30.40;51.80;;;;;;4862238;29;20055;-90
2022/08/26 12:27:26;;;;;;;5.40;1.50;;;30.50;51.60;;;;;;4862823;29;20053;-87
2022/08/26 12:30:08;;;;;;;5.00;2.03;;;30.50;50.70;;;;;;4866262;29;20079;-90
2022/08/26 12:32:42;;;;;;;7.00;1.60;;;30.50;51.20;;;;;;4865840;29;20049;-89
2022/08/26 12:35:27;;;;;;;8.05;1.42;;;30.60;52.00;;;;;;4865021;29;20390;-86
2022/08/26 12:37:56;;;;;;;7.70;1.95;;;30.50;52.90;;;;;;4880014;29;20048;-87
2022/08/26 12:40:29;;;;;;;6.78;1.70;;;30.50;52.90;;;;;;4861675;29;20056;-86
2022/08/26 12:43:00;;;;;;;7.45;1.65;;;30.50;51.50;;;;;;4867955;29;20127;-89
2022/08/26 12:45:27;;;;;;;6.82;1.50;;;30.50;51.00;;;;;;4879047;29;20062;-89
2022/08/26 12:47:58;;;;;;;4.70;1.67;;;30.50;51.90;;;;;;4855922;29;20144;-89
2022/08/26 12:50:32;;;;;;;8.23;1.70;;;30.50;50.70;;;;;;4894389;29;20642;-85
2022/08/26 12:53:09;;;;;;;11.43;1.85;;;30.50;51.60;;;;;;4881083;29;20049;-89
2022/08/26 12:55:36;;;;;;;11.48;2.75;;;30.50;51.10;;;;;;4882170;29;20053;-89
2022/08/26 12:58:15;;;;;;;7.80;1.58;;;30.50;50.30;;;;;;4882174;29;20041;-87
2022/08/26 13:00:47;;;;;;;6.25;2.00;;;30.70;50.20;;;;;;4866781;29;20403;-87
2022/08/26 13:03:37;;;;;;;3.95;1.60;;;30.70;50.60;;;;;;4858169;29;20072;-88
2022/08/26 13:06:22;;;;;;;6.10;1.60;;;30.60;49.60;;;;;;4856096;29;20048;-87
2022/08/26 13:08:54;;;;;;;7.07;2.00;;;30.60;50.40;;;;;;4880435;29;20048;-89
2022/08/26 13:11:48;;;;;;;9.57;2.00;;;30.50;50.70;;;;;;4861518;29;20053;-88
2022/08/26 13:14:17;;;;;;;8.85;2.08;;;30.40;51.40;;;;;;4829471;29;20084;-89
2022/08/26 13:16:51;;;;;;;4.95;1.85;;;30.50;51.10;;;;;;4863681;29;20167;-93
2022/08/26 13:19:21;;;;;;;8.35;1.85;;;30.50;48.90;;;;;;4864707;29;20045;-89
2022/08/26 13:21:55;;;;;;;6.63;1.73;;;30.50;50.70;;;;;;4863450;29;20113;-86